createdAt,value
2023-05-09T00:01:20.249Z,101079.14
2023-05-09T00:03:46.740Z,101079.78
2023-05-09T00:06:13.273Z,101081.13
2023-05-09T00:08:39.714Z,101080.89
2023-05-09T00:11:06.198Z,101078.25
2023-05-09T00:13:33.417Z,101079.06
2023-05-09T00:16:00.032Z,101080.21
2023-05-09T00:18:26.848Z,101078.78
2023-05-09T00:20:53.328Z,101074.38
2023-05-09T00:23:19.882Z,101072.95
2023-05-09T00:25:46.332Z,101071.54
2023-05-09T00:28:12.797Z,101068.02
2023-05-09T00:30:39.279Z,101069.92
2023-05-09T00:33:05.825Z,101069.05
2023-05-09T00:35:32.416Z,101066.41
2023-05-09T00:37:58.863Z,101064.45
2023-05-09T00:40:25.301Z,101060.22
2023-05-09T00:42:51.766Z,101062.62
2023-05-09T00:45:18.340Z,101062.40
2023-05-09T00:47:44.806Z,101065.81
2023-05-09T00:50:11.406Z,101059.09
2023-05-09T00:52:38.849Z,101064.12
2023-05-09T00:55:06.050Z,101065.48
2023-05-09T00:57:32.544Z,101063.68
2023-05-09T01:00:00.131Z,101060.30
2023-05-09T01:02:27.666Z,101059.04
2023-05-09T01:04:54.202Z,101063.72
2023-05-09T01:07:33.388Z,101060.91
2023-05-09T01:10:11.784Z,101062.64
2023-05-09T01:13:04.693Z,101058.73
2023-05-09T01:15:41.125Z,101061.48
2023-05-09T01:18:14.654Z,101059.66
2023-05-09T01:20:54.384Z,101060.31
2023-05-09T01:23:45.172Z,101060.41
2023-05-09T01:26:42.705Z,101058.11
2023-05-09T01:29:33.874Z,101055.05
2023-05-09T01:32:04.529Z,101050.45
2023-05-09T01:34:32.575Z,101056.67
2023-05-09T01:37:00.217Z,101056.25
2023-05-09T01:39:27.536Z,101058.81
2023-05-09T01:41:56.725Z,101053.84
2023-05-09T01:44:25.258Z,101050.55
2023-05-09T01:46:54.720Z,101044.56
2023-05-09T01:49:22.497Z,101042.78
2023-05-09T01:51:49.981Z,101040.08
2023-05-09T01:54:17.578Z,101043.64
2023-05-09T01:56:45.683Z,101038.55
2023-05-09T01:59:14.501Z,101040.74
2023-05-09T02:01:41.027Z,101038.95
2023-05-09T02:04:07.629Z,101044.14
2023-05-09T02:06:36.135Z,101039.41
2023-05-09T02:09:02.948Z,101038.86
2023-05-09T02:11:29.412Z,101037.29
2023-05-09T02:13:55.901Z,101034.30
2023-05-09T02:16:22.396Z,101031.83
2023-05-09T02:18:48.916Z,101029.00
2023-05-09T02:21:15.564Z,101024.61
2023-05-09T02:23:42.101Z,101028.06
2023-05-09T02:26:09.158Z,101028.38
2023-05-09T02:28:36.621Z,101024.52
2023-05-09T02:31:06.338Z,101029.69
2023-05-09T02:33:35.803Z,101028.92
2023-05-09T02:36:02.744Z,101028.30
2023-05-09T02:38:29.293Z,101028.30
2023-05-09T02:40:56.055Z,101028.84
2023-05-09T02:43:22.567Z,101017.69
2023-05-09T02:45:49.070Z,101016.30
2023-05-09T02:48:15.587Z,101018.91
2023-05-09T02:50:41.994Z,101023.09
2023-05-09T02:53:08.467Z,101018.89
2023-05-09T02:55:34.987Z,101020.38
2023-05-09T02:58:12.098Z,101022.73
2023-05-09T03:00:39.732Z,101020.75
2023-05-09T03:03:06.324Z,101018.80
2023-05-09T03:05:32.819Z,101018.95
2023-05-09T03:07:59.307Z,101019.14
2023-05-09T03:10:25.730Z,101016.52
2023-05-09T03:12:52.252Z,101013.34
2023-05-09T03:15:18.842Z,101018.89
2023-05-09T03:17:45.397Z,101013.33
2023-05-09T03:20:11.907Z,101015.77
2023-05-09T03:22:38.429Z,101012.10
2023-05-09T03:25:05.282Z,101010.54
2023-05-09T03:27:32.159Z,101011.58
2023-05-09T03:29:58.653Z,101018.16
2023-05-09T03:32:27.013Z,101016.38
2023-05-09T03:34:53.521Z,101024.40
2023-05-09T03:37:20.169Z,101022.34
2023-05-09T03:39:46.614Z,101022.02
2023-05-09T03:42:13.077Z,101025.17
2023-05-09T03:44:39.519Z,101026.23
2023-05-09T03:47:06.029Z,101030.29
2023-05-09T03:49:32.526Z,101030.33
2023-05-09T03:51:58.969Z,101031.92
2023-05-09T03:54:25.448Z,101033.56
2023-05-09T03:56:51.852Z,101032.19
2023-05-09T03:59:18.313Z,101032.42
2023-05-09T04:01:44.825Z,101034.58
2023-05-09T04:04:11.409Z,101032.05
2023-05-09T04:06:38.009Z,101030.34
2023-05-09T04:09:04.504Z,101031.47
2023-05-09T04:11:31.001Z,101030.30
2023-05-09T04:13:57.416Z,101031.11
2023-05-09T04:16:24.100Z,101026.67
2023-05-09T04:18:50.579Z,101026.97
2023-05-09T04:21:17.174Z,101028.13
2023-05-09T04:23:43.628Z,101028.95
2023-05-09T04:26:10.089Z,101030.98
2023-05-09T04:28:36.527Z,101032.66
2023-05-09T04:31:03.145Z,101030.67
2023-05-09T04:33:29.630Z,101028.14
2023-05-09T04:35:56.080Z,101023.86
2023-05-09T04:38:22.512Z,101029.23
2023-05-09T04:40:49.160Z,101028.13
2023-05-09T04:43:15.701Z,101027.05
2023-05-09T04:45:42.189Z,101031.34
2023-05-09T04:48:08.651Z,101030.41
2023-05-09T04:50:35.116Z,101030.52
2023-05-09T04:53:01.561Z,101031.69
2023-05-09T04:55:27.984Z,101029.53
2023-05-09T04:57:54.440Z,101029.11
2023-05-09T05:00:20.895Z,101030.27
2023-05-09T05:02:47.437Z,101028.80
2023-05-09T05:05:13.929Z,101027.19
2023-05-09T05:07:40.366Z,101027.50
2023-05-09T05:10:07.374Z,101025.36
2023-05-09T05:12:33.795Z,101029.69
2023-05-09T05:15:00.273Z,101034.02
2023-05-09T05:17:26.727Z,101035.36
2023-05-09T05:19:53.215Z,101034.45
2023-05-09T05:22:19.687Z,101031.26
2023-05-09T05:24:46.136Z,101033.69
2023-05-09T05:27:12.563Z,101038.23
2023-05-09T05:29:39.010Z,101034.55
2023-05-09T05:32:05.455Z,101035.21
2023-05-09T05:34:31.908Z,101032.02
2023-05-09T05:36:58.370Z,101032.17
2023-05-09T05:39:24.865Z,101030.04
2023-05-09T05:41:51.444Z,101027.55
2023-05-09T05:44:17.879Z,101022.79
2023-05-09T05:46:44.305Z,101024.53
2023-05-09T05:49:10.753Z,101024.17
2023-05-09T05:51:37.175Z,101019.96
2023-05-09T05:54:03.801Z,101019.79
2023-05-09T05:56:30.272Z,101025.34
2023-05-09T05:58:56.763Z,101024.56
2023-05-09T06:01:23.179Z,101023.80
2023-05-09T06:03:49.717Z,101028.98
2023-05-09T06:06:16.330Z,101033.11
2023-05-09T06:08:43.083Z,101030.39
2023-05-09T06:11:09.813Z,101035.36
2023-05-09T06:13:36.538Z,101027.20
2023-05-09T06:16:17.973Z,101024.98
2023-05-09T06:18:45.895Z,101028.38
2023-05-09T06:21:12.903Z,101029.16
2023-05-09T06:23:47.299Z,101033.61
2023-05-09T06:26:23.887Z,101028.57
2023-05-09T06:28:50.423Z,101031.60
2023-05-09T06:31:16.958Z,101025.84
2023-05-09T06:33:43.415Z,101022.89
2023-05-09T06:36:09.935Z,101021.50
2023-05-09T06:38:37.906Z,101019.42
2023-05-09T06:41:04.991Z,101021.04
2023-05-09T06:43:31.562Z,101015.97
2023-05-09T06:45:58.072Z,101017.73
2023-05-09T06:48:24.892Z,101019.86
2023-05-09T06:50:51.418Z,101016.89
2023-05-09T06:53:18.177Z,101015.85
2023-05-09T06:55:44.789Z,101015.15
2023-05-09T06:58:11.452Z,101008.48
2023-05-09T07:00:38.672Z,101003.21
2023-05-09T07:03:05.303Z,101000.39
2023-05-09T07:05:31.905Z,100998.98
2023-05-09T07:07:58.407Z,100991.05
2023-05-09T07:10:25.095Z,100990.85
2023-05-09T07:12:51.623Z,100988.92
2023-05-09T07:15:28.806Z,100988.02
2023-05-09T07:18:03.672Z,100980.95
2023-05-09T07:20:30.353Z,100986.21
2023-05-09T07:22:56.813Z,100988.80
2023-05-09T07:25:23.257Z,100984.19
2023-05-09T07:27:49.771Z,100977.45
2023-05-09T07:30:16.555Z,100971.96
2023-05-09T07:32:43.190Z,100969.43
2023-05-09T07:35:09.739Z,100966.23
2023-05-09T07:37:36.204Z,100966.16
2023-05-09T07:40:03.325Z,100966.77
2023-05-09T07:42:29.789Z,100963.37
2023-05-09T07:44:56.227Z,100963.67
2023-05-09T07:47:22.693Z,100958.71
2023-05-09T07:49:49.162Z,100958.29
2023-05-09T07:52:15.655Z,100954.67
2023-05-09T07:54:42.268Z,100955.11
2023-05-09T07:57:08.794Z,100949.96
2023-05-09T07:59:35.275Z,100946.13
2023-05-09T08:02:02.008Z,100945.65
2023-05-09T08:04:28.510Z,100938.65
2023-05-09T08:06:54.944Z,100943.64
2023-05-09T08:09:21.388Z,100938.36
2023-05-09T08:11:47.914Z,100935.94
2023-05-09T08:14:15.624Z,100935.29
2023-05-09T08:16:42.217Z,100928.83
2023-05-09T08:19:08.698Z,100923.59
2023-05-09T08:21:35.169Z,100920.11
2023-05-09T08:24:01.829Z,100917.88
2023-05-09T08:26:28.281Z,100918.77
2023-05-09T08:28:54.751Z,100914.77
2023-05-09T08:31:21.244Z,100911.14
2023-05-09T08:33:47.713Z,100908.73
2023-05-09T08:36:14.184Z,100902.73
2023-05-09T08:38:40.794Z,100906.98
2023-05-09T08:41:07.308Z,100905.92
2023-05-09T08:43:34.341Z,100908.98
2023-05-09T08:46:06.643Z,100910.09
2023-05-09T08:48:36.043Z,100907.67
2023-05-09T08:51:02.978Z,100906.16
2023-05-09T08:53:29.486Z,100904.89
2023-05-09T08:55:58.229Z,100903.56
2023-05-09T08:58:24.724Z,100891.83
2023-05-09T09:00:51.379Z,100895.92
2023-05-09T09:03:18.030Z,100892.52
2023-05-09T09:05:45.064Z,100885.83
2023-05-09T09:08:14.124Z,100887.25
2023-05-09T09:10:42.078Z,100887.58
2023-05-09T09:13:10.067Z,100889.42
2023-05-09T09:15:38.533Z,100878.88
2023-05-09T09:18:08.225Z,100884.70
2023-05-09T09:20:37.270Z,100878.27
2023-05-09T09:23:04.447Z,100882.73
2023-05-09T09:25:31.043Z,100878.81
2023-05-09T09:27:57.500Z,100881.83
2023-05-09T09:30:24.550Z,100880.63
2023-05-09T09:32:51.125Z,100879.39
2023-05-09T09:35:17.597Z,100879.92
2023-05-09T09:37:44.074Z,100872.29
2023-05-09T09:40:12.308Z,100877.08
2023-05-09T09:42:47.853Z,100878.21
2023-05-09T09:45:17.167Z,100883.47
2023-05-09T09:47:45.539Z,100877.47
2023-05-09T09:50:15.883Z,100875.64
2023-05-09T09:52:50.019Z,100878.33
2023-05-09T09:55:17.657Z,100878.84
2023-05-09T09:57:44.640Z,100874.00
2023-05-09T10:00:13.436Z,100871.73
2023-05-09T10:02:47.346Z,100869.59
2023-05-09T10:05:19.025Z,100868.27
2023-05-09T10:07:45.488Z,100863.41
2023-05-09T10:10:12.090Z,100854.95
2023-05-09T10:12:40.474Z,100855.45
2023-05-09T10:15:09.446Z,100856.21
2023-05-09T10:17:36.649Z,100852.51
2023-05-09T10:20:05.805Z,100855.20
2023-05-09T10:22:38.188Z,100855.62
2023-05-09T10:25:14.951Z,100856.23
2023-05-09T10:27:45.367Z,100848.73
2023-05-09T10:30:19.740Z,100845.70
2023-05-09T10:33:02.864Z,100843.20
2023-05-09T10:35:57.647Z,100845.73
2023-05-09T10:38:24.970Z,100847.02
2023-05-09T10:40:53.445Z,100845.77
2023-05-09T10:43:20.767Z,100834.55
2023-05-09T10:45:47.544Z,100830.36
2023-05-09T10:48:14.538Z,100829.44
2023-05-09T10:50:41.358Z,100831.64
2023-05-09T10:53:09.591Z,100831.94
2023-05-09T10:55:57.313Z,100836.05
2023-05-09T10:58:24.885Z,100832.75
2023-05-09T11:00:53.802Z,100827.66
2023-05-09T11:03:22.330Z,100827.43
2023-05-09T11:05:52.060Z,100830.09
2023-05-09T11:08:25.798Z,100834.77
2023-05-09T11:10:56.667Z,100834.17
2023-05-09T11:13:31.252Z,100829.13
2023-05-09T11:16:01.003Z,100826.86
2023-05-09T11:18:28.571Z,100819.58
2023-05-09T11:20:56.116Z,100815.08
2023-05-09T11:23:26.910Z,100811.12
2023-05-09T11:26:03.968Z,100807.30
2023-05-09T11:28:35.025Z,100804.80
2023-05-09T11:31:14.632Z,100806.33
2023-05-09T11:33:42.961Z,100802.75
2023-05-09T11:36:15.755Z,100802.02
2023-05-09T11:38:42.728Z,100802.83
2023-05-09T11:41:09.380Z,100800.21
2023-05-09T11:43:39.624Z,100796.67
2023-05-09T11:46:06.333Z,100793.85
2023-05-09T11:48:40.081Z,100793.13
2023-05-09T11:51:06.662Z,100792.19
2023-05-09T11:53:33.397Z,100789.79
2023-05-09T11:56:03.466Z,100786.45
2023-05-09T11:58:30.238Z,100797.02
2023-05-09T12:00:57.417Z,100793.21
2023-05-09T12:03:24.014Z,100789.34
2023-05-09T12:05:50.721Z,100786.86
2023-05-09T12:08:17.469Z,100781.32
2023-05-09T12:10:43.904Z,100777.38
2023-05-09T12:13:10.540Z,100773.52
2023-05-09T12:15:37.996Z,100772.27
2023-05-09T12:18:06.897Z,100767.42
2023-05-09T12:20:48.406Z,100764.05
2023-05-09T12:23:15.003Z,100768.34
2023-05-09T12:25:55.242Z,100768.98
2023-05-09T12:28:25.555Z,100766.86
2023-05-09T12:30:53.253Z,100758.29
2023-05-09T12:33:20.247Z,100756.00
2023-05-09T12:35:47.596Z,100751.49
2023-05-09T12:38:20.405Z,100745.46
2023-05-09T12:41:03.783Z,100748.02
2023-05-09T12:43:37.712Z,100748.62
2023-05-09T12:46:05.243Z,100750.17
2023-05-09T12:48:37.386Z,100745.80
2023-05-09T12:51:08.089Z,100743.72
2023-05-09T12:53:41.465Z,100740.86
2023-05-09T12:56:18.799Z,100726.32
2023-05-09T12:58:53.536Z,100722.88
2023-05-09T13:01:22.300Z,100728.08
2023-05-09T13:03:53.476Z,100727.21
2023-05-09T13:06:20.197Z,100729.76
2023-05-09T13:08:57.874Z,100720.02
2023-05-09T13:11:24.398Z,100712.98
2023-05-09T13:13:50.844Z,100707.06
2023-05-09T13:16:17.989Z,100702.16
2023-05-09T13:18:44.557Z,100693.91
2023-05-09T13:21:11.092Z,100695.08
2023-05-09T13:23:37.586Z,100689.75
2023-05-09T13:26:04.116Z,100689.45
2023-05-09T13:28:30.559Z,100683.02
2023-05-09T13:30:57.051Z,100688.64
2023-05-09T13:33:26.397Z,100688.48
2023-05-09T13:35:53.396Z,100686.75
2023-05-09T13:38:19.866Z,100688.60
2023-05-09T13:40:46.343Z,100691.71
2023-05-09T13:43:12.836Z,100696.30
2023-05-09T13:45:39.287Z,100697.99
2023-05-09T13:48:06.085Z,100689.10
2023-05-09T13:50:32.620Z,100689.12
2023-05-09T13:52:59.070Z,100683.98
2023-05-09T13:55:25.506Z,100683.45
2023-05-09T13:57:51.974Z,100679.05
2023-05-09T14:00:18.982Z,100665.48
2023-05-09T14:02:45.747Z,100662.61
2023-05-09T14:05:12.217Z,100657.05
2023-05-09T14:07:41.823Z,100649.70
2023-05-09T14:10:12.476Z,100650.05
2023-05-09T14:12:42.199Z,100648.26
2023-05-09T14:15:09.018Z,100650.23
2023-05-09T14:17:35.556Z,100647.84
2023-05-09T14:20:02.211Z,100652.11
2023-05-09T14:22:28.717Z,100650.44
2023-05-09T14:24:55.206Z,100651.04
2023-05-09T14:27:21.709Z,100649.19
2023-05-09T14:29:48.231Z,100649.71
2023-05-09T14:32:14.804Z,100643.86
2023-05-09T14:34:41.265Z,100639.77
2023-05-09T14:37:07.906Z,100634.71
2023-05-09T14:39:34.359Z,100637.70
2023-05-09T14:42:00.796Z,100637.22
2023-05-09T14:44:27.257Z,100633.95
2023-05-09T14:46:53.732Z,100638.84
2023-05-09T14:49:20.259Z,100633.40
2023-05-09T14:51:46.695Z,100632.14
2023-05-09T14:54:13.266Z,100631.36
2023-05-09T14:56:39.688Z,100625.69
2023-05-09T14:59:06.126Z,100625.35
2023-05-09T15:01:32.663Z,100621.55
2023-05-09T15:03:59.253Z,100618.89
2023-05-09T15:06:25.720Z,100619.88
2023-05-09T15:08:52.362Z,100619.55
2023-05-09T15:11:18.878Z,100619.01
2023-05-09T15:13:45.393Z,100620.06
2023-05-09T15:16:11.895Z,100621.06
2023-05-09T15:18:38.377Z,100616.73
2023-05-09T15:21:05.174Z,100612.34
2023-05-09T15:23:31.753Z,100612.90
2023-05-09T15:25:58.259Z,100611.25
2023-05-09T15:28:24.837Z,100607.70
2023-05-09T15:30:51.361Z,100604.08
2023-05-09T15:33:17.872Z,100597.27
2023-05-09T15:35:44.572Z,100593.40
2023-05-09T15:38:12.269Z,100594.63
2023-05-09T15:40:41.998Z,100590.44
2023-05-09T15:43:08.663Z,100586.52
2023-05-09T15:45:35.173Z,100586.45
2023-05-09T15:48:01.736Z,100584.94
2023-05-09T15:50:28.262Z,100582.77
2023-05-09T15:52:54.794Z,100587.65
2023-05-09T15:55:21.302Z,100588.80
2023-05-09T15:57:47.840Z,100585.17
2023-05-09T16:00:15.221Z,100583.52
2023-05-09T16:02:41.890Z,100581.14
2023-05-09T16:05:08.504Z,100577.27
2023-05-09T16:07:35.855Z,100576.45
2023-05-09T16:10:02.771Z,100575.14
2023-05-09T16:12:29.410Z,100575.34
2023-05-09T16:14:55.868Z,100571.83
2023-05-09T16:17:22.302Z,100571.89
2023-05-09T16:19:48.810Z,100571.53
2023-05-09T16:22:15.295Z,100569.59
2023-05-09T16:24:41.739Z,100569.96
2023-05-09T16:27:08.226Z,100569.40
2023-05-09T16:29:34.769Z,100572.97
2023-05-09T16:32:01.405Z,100568.59
2023-05-09T16:34:28.028Z,100577.20
2023-05-09T16:36:54.484Z,100574.20
2023-05-09T16:39:20.953Z,100565.64
2023-05-09T16:41:47.433Z,100562.27
2023-05-09T16:44:13.918Z,100557.30
2023-05-09T16:46:40.392Z,100559.50
2023-05-09T16:49:06.918Z,100561.77
2023-05-09T16:51:33.374Z,100557.70
2023-05-09T16:53:59.792Z,100553.28
2023-05-09T16:56:26.290Z,100552.35
2023-05-09T16:58:52.745Z,100550.17
2023-05-09T17:01:19.341Z,100550.57
2023-05-09T17:03:45.843Z,100551.66
2023-05-09T17:06:12.333Z,100554.02
2023-05-09T17:08:38.825Z,100554.81
2023-05-09T17:11:05.325Z,100552.23
2023-05-09T17:13:31.801Z,100551.73
2023-05-09T17:15:58.329Z,100550.12
2023-05-09T17:18:36.091Z,100550.11
2023-05-09T17:21:03.992Z,100547.80
2023-05-09T17:23:30.467Z,100546.39
2023-05-09T17:25:56.906Z,100549.35
2023-05-09T17:28:23.392Z,100546.67
2023-05-09T17:30:49.907Z,100549.31
2023-05-09T17:33:16.381Z,100545.54
2023-05-09T17:35:42.861Z,100543.88
2023-05-09T17:38:09.321Z,100543.64
2023-05-09T17:40:38.450Z,100544.14
2023-05-09T17:43:04.917Z,100544.42
2023-05-09T17:45:31.418Z,100540.86
2023-05-09T17:47:57.960Z,100546.88
2023-05-09T17:50:24.426Z,100543.85
2023-05-09T17:52:50.917Z,100546.86
2023-05-09T17:55:18.139Z,100545.09
2023-05-09T17:57:44.755Z,100546.31
2023-05-09T18:00:11.764Z,100549.29
2023-05-09T18:02:38.909Z,100554.52
2023-05-09T18:05:08.266Z,100550.93
2023-05-09T18:07:34.964Z,100548.97
2023-05-09T18:10:01.648Z,100549.80
2023-05-09T18:12:28.130Z,100551.35
2023-05-09T18:14:55.291Z,100549.17
2023-05-09T18:17:21.928Z,100551.40
2023-05-09T18:19:48.410Z,100552.79
2023-05-09T18:22:17.875Z,100555.20
2023-05-09T18:24:44.440Z,100553.05
2023-05-09T18:27:10.926Z,100555.05
2023-05-09T18:29:37.570Z,100555.33
2023-05-09T18:32:04.135Z,100552.59
2023-05-09T18:34:30.948Z,100561.13
2023-05-09T18:36:57.420Z,100565.78
2023-05-09T18:39:23.873Z,100570.27
2023-05-09T18:41:50.328Z,100571.95
2023-05-09T18:44:16.875Z,100578.02
2023-05-09T18:46:43.396Z,100579.52
2023-05-09T18:49:09.893Z,100582.45
2023-05-09T18:51:36.386Z,100582.14
2023-05-09T18:54:02.883Z,100583.45
2023-05-09T18:56:29.480Z,100581.06
2023-05-09T18:58:56.143Z,100586.23
2023-05-09T19:01:22.879Z,100584.55
2023-05-09T19:03:49.431Z,100585.14
2023-05-09T19:06:16.007Z,100590.50
2023-05-09T19:08:43.439Z,100592.36
2023-05-09T19:11:10.354Z,100590.11
2023-05-09T19:13:37.184Z,100590.73
2023-05-09T19:16:07.991Z,100589.71
2023-05-09T19:18:34.674Z,100589.95
2023-05-09T19:21:01.240Z,100589.13
2023-05-09T19:23:27.751Z,100587.97
2023-05-09T19:25:54.469Z,100588.73
2023-05-09T19:28:21.452Z,100588.44
2023-05-09T19:30:48.007Z,100583.72
2023-05-09T19:33:14.559Z,100583.58
2023-05-09T19:35:41.875Z,100584.13
2023-05-09T19:38:08.605Z,100584.16
2023-05-09T19:40:35.201Z,100584.55
2023-05-09T19:43:01.861Z,100588.64
2023-05-09T19:45:28.405Z,100583.22
2023-05-09T19:47:55.031Z,100584.32
2023-05-09T19:50:21.989Z,100578.02
2023-05-09T19:52:48.576Z,100576.46
2023-05-09T19:55:15.153Z,100576.30
2023-05-09T19:57:41.628Z,100577.02
2023-05-09T20:00:08.703Z,100577.94
2023-05-09T20:02:35.351Z,100574.79
2023-05-09T20:05:01.968Z,100572.70
2023-05-09T20:07:28.457Z,100571.31
2023-05-09T20:09:54.880Z,100569.58
2023-05-09T20:12:21.352Z,100569.95
2023-05-09T20:14:47.859Z,100572.94
2023-05-09T20:17:14.298Z,100572.42
2023-05-09T20:19:40.774Z,100572.77
2023-05-09T20:22:07.226Z,100570.16
2023-05-09T20:24:33.726Z,100570.86
2023-05-09T20:27:00.312Z,100567.71
2023-05-09T20:29:26.844Z,100572.48
2023-05-09T20:31:53.352Z,100568.79
2023-05-09T20:34:20.251Z,100570.73
2023-05-09T20:36:48.061Z,100570.58
2023-05-09T20:39:14.513Z,100564.60
2023-05-09T20:41:40.964Z,100564.43
2023-05-09T20:44:07.536Z,100561.11
2023-05-09T20:46:34.033Z,100557.25
2023-05-09T20:49:00.636Z,100558.67
2023-05-09T20:51:27.090Z,100552.19
2023-05-09T20:53:53.548Z,100550.80
2023-05-09T20:56:20.028Z,100550.29
2023-05-09T20:58:46.503Z,100551.02
2023-05-09T21:01:12.991Z,100551.38
2023-05-09T21:03:39.508Z,100551.05
2023-05-09T21:06:06.032Z,100547.71
2023-05-09T21:08:32.489Z,100548.09
2023-05-09T21:10:58.991Z,100545.28
2023-05-09T21:13:25.589Z,100544.59
2023-05-09T21:15:52.243Z,100545.31
2023-05-09T21:18:18.940Z,100543.73
2023-05-09T21:20:45.445Z,100546.19
2023-05-09T21:23:12.173Z,100540.05
2023-05-09T21:25:38.624Z,100538.32
2023-05-09T21:28:05.269Z,100539.55
2023-05-09T21:30:31.772Z,100537.61
2023-05-09T21:32:58.226Z,100536.02
2023-05-09T21:35:24.795Z,100544.64
2023-05-09T21:37:51.226Z,100538.14
2023-05-09T21:40:18.124Z,100537.61
2023-05-09T21:42:44.730Z,100534.27
2023-05-09T21:45:11.441Z,100531.13
2023-05-09T21:47:38.270Z,100530.98
2023-05-09T21:50:05.746Z,100527.98
2023-05-09T21:52:32.243Z,100529.05
2023-05-09T21:54:59.317Z,100529.23
2023-05-09T21:57:25.790Z,100525.90
2023-05-09T21:59:52.227Z,100528.02
2023-05-09T22:02:18.781Z,100526.96
2023-05-09T22:04:45.380Z,100530.83
2023-05-09T22:07:12.704Z,100532.77
2023-05-09T22:09:39.154Z,100528.02
2023-05-09T22:12:05.777Z,100531.17
2023-05-09T22:14:33.534Z,100528.53
2023-05-09T22:17:03.569Z,100531.52
2023-05-09T22:19:30.270Z,100533.63
2023-05-09T22:21:56.754Z,100531.85
2023-05-09T22:24:23.219Z,100530.61
2023-05-09T22:26:49.680Z,100528.48
2023-05-09T22:29:16.281Z,100523.20
2023-05-09T22:31:42.811Z,100529.50
2023-05-09T22:34:09.560Z,100527.74
2023-05-09T22:36:36.063Z,100528.27
2023-05-09T22:39:02.559Z,100528.79
2023-05-09T22:41:29.076Z,100528.60
2023-05-09T22:43:55.525Z,100524.73
2023-05-09T22:46:22.110Z,100526.31
2023-05-09T22:48:48.590Z,100526.33
2023-05-09T22:51:15.177Z,100525.45
2023-05-09T22:53:41.673Z,100523.34
2023-05-09T22:56:08.201Z,100522.98
2023-05-09T22:58:34.980Z,100523.52
2023-05-09T23:01:01.514Z,100521.24
2023-05-09T23:03:28.104Z,100525.29
2023-05-09T23:05:54.652Z,100526.54
2023-05-09T23:08:21.120Z,100527.95
2023-05-09T23:10:47.590Z,100521.13
2023-05-09T23:13:14.070Z,100514.47
2023-05-09T23:15:40.601Z,100518.16
2023-05-09T23:18:07.280Z,100520.65
2023-05-09T23:20:33.767Z,100520.84
2023-05-09T23:23:00.227Z,100521.40
2023-05-09T23:25:26.680Z,100519.66
2023-05-09T23:27:53.199Z,100523.55
2023-05-09T23:30:19.642Z,100520.95
2023-05-09T23:32:46.249Z,100521.32
2023-05-09T23:35:12.806Z,100520.45
2023-05-09T23:37:39.325Z,100522.94
2023-05-09T23:40:06.419Z,100520.14
2023-05-09T23:42:32.895Z,100517.52
2023-05-09T23:44:59.382Z,100515.61
2023-05-09T23:47:25.925Z,100511.77
2023-05-09T23:49:52.441Z,100507.89
2023-05-09T23:52:18.902Z,100506.31
2023-05-09T23:54:45.401Z,100510.01
2023-05-09T23:57:11.904Z,100505.98
2023-05-09T23:59:38.385Z,100503.54
